SBDN/PPB METAR and TAF weather

Enter ICAO airport designator
Station Type Date Time Source
SBDN METAR 2020/09/19 20:00 UTC NOAA

SBDN 192000Z 33005KT 8000 NSC 29/12 Q1013


Station Type Date Time Source
SBDN Decoded METAR 2020/09/19 20:00 UTC NOAA

Presidente Prudente, Brazil (SBDN) 22-07S 051-23W
Sep 19, 2020 - 04:00 PM EDT / 2020.09.19 2000 UTC
Wind: from the NNW (330 degrees) at 6 MPH (5 KT):0
Visibility: 4 mile(s):0
Temperature: 84 F (29 C)
Dew Point: 53 F (12 C)
Relative Humidity: 34%
Pressure (altimeter): 29.91 in. Hg (1013 hPa)
ob: SBDN 192000Z 33005KT 8000 NSC 29/12 Q1013
cycle: 20

Station Type Date Time Source
SBDN TAF 2020/09/19 18:27 UTC NOAA

TAF SBDN 191606Z 1918/2006 30007KT 8000 FEW040TX33/1918Z TN21/2005Z PROB30 1918/1920 24010KT 7000 SHRA SCT035 FEW045TCU
BECMG 1920/1922 21007KT 9000 SCT045
BECMG 1923/2001 17005KT
RMK PGO

Example: see airport list